sensor_id;sensor_type;location;lat;lon;timestamp;pressure;altitude;pressure_sealevel;temperature;humidity
15604;BME280;7902;49.042;9.092;2023-06-22T00:00:53;99100.69;;;27.13;53.93
15604;BME280;7902;49.042;9.092;2023-06-22T00:03:21;99095.56;;;27.05;54.07
15604;BME280;7902;49.042;9.092;2023-06-22T00:05:47;99083.13;;;27.04;53.86
15604;BME280;7902;49.042;9.092;2023-06-22T00:08:14;99068.06;;;26.90;54.79
15604;BME280;7902;49.042;9.092;2023-06-22T00:10:40;99061.22;;;26.94;54.56
15604;BME280;7902;49.042;9.092;2023-06-22T00:13:07;99066.38;;;26.95;54.16
15604;BME280;7902;49.042;9.092;2023-06-22T00:15:33;99059.13;;;26.96;54.24
15604;BME280;7902;49.042;9.092;2023-06-22T00:18:00;99056.81;;;26.99;54.14
15604;BME280;7902;49.042;9.092;2023-06-22T00:20:26;99058.97;;;26.91;54.38
15604;BME280;7902;49.042;9.092;2023-06-22T00:22:59;99057.31;;;26.83;54.46
15604;BME280;7902;49.042;9.092;2023-06-22T00:25:25;99052.97;;;26.82;54.24
15604;BME280;7902;49.042;9.092;2023-06-22T00:27:51;99058.38;;;26.76;54.61
15604;BME280;7902;49.042;9.092;2023-06-22T00:30:18;99064.81;;;26.75;54.45
15604;BME280;7902;49.042;9.092;2023-06-22T00:32:45;99064.56;;;26.83;54.63
15604;BME280;7902;49.042;9.092;2023-06-22T00:35:12;99071.94;;;26.62;55.10
15604;BME280;7902;49.042;9.092;2023-06-22T00:37:39;99069.69;;;26.59;54.78
15604;BME280;7902;49.042;9.092;2023-06-22T00:40:08;99074.50;;;26.51;55.40
15604;BME280;7902;49.042;9.092;2023-06-22T00:42:40;99077.78;;;26.46;55.51
15604;BME280;7902;49.042;9.092;2023-06-22T00:45:07;99083.03;;;26.41;55.72
15604;BME280;7902;49.042;9.092;2023-06-22T00:47:34;99092.34;;;26.39;55.86
15604;BME280;7902;49.042;9.092;2023-06-22T00:50:01;99089.84;;;26.37;55.89
15604;BME280;7902;49.042;9.092;2023-06-22T00:52:29;99094.63;;;26.35;55.64
15604;BME280;7902;49.042;9.092;2023-06-22T00:54:56;99108.97;;;26.23;56.31
15604;BME280;7902;49.042;9.092;2023-06-22T00:57:24;99131.69;;;26.13;56.40
15604;BME280;7902;49.042;9.092;2023-06-22T00:59:54;99181.22;;;26.06;56.76
15604;BME280;7902;49.042;9.092;2023-06-22T01:02:20;99227.16;;;26.11;56.69
15604;BME280;7902;49.042;9.092;2023-06-22T01:04:46;99221.38;;;26.40;55.80
15604;BME280;7902;49.042;9.092;2023-06-22T01:10:03;99157.97;;;26.44;55.47
15604;BME280;7902;49.042;9.092;2023-06-22T01:12:38;99142.47;;;26.40;55.93
15604;BME280;7902;49.042;9.092;2023-06-22T01:15:08;99138.94;;;26.39;55.81
15604;BME280;7902;49.042;9.092;2023-06-22T01:17:39;99137.50;;;26.37;55.71
15604;BME280;7902;49.042;9.092;2023-06-22T01:20:08;99131.50;;;26.41;55.55
15604;BME280;7902;49.042;9.092;2023-06-22T01:23:07;99133.56;;;26.39;55.76
15604;BME280;7902;49.042;9.092;2023-06-22T01:26:27;99129.25;;;26.32;55.87
15604;BME280;7902;49.042;9.092;2023-06-22T01:28:53;99121.59;;;26.22;56.25
15604;BME280;7902;49.042;9.092;2023-06-22T01:31:27;99128.00;;;26.21;56.45
15604;BME280;7902;49.042;9.092;2023-06-22T01:34:02;99124.47;;;26.14;56.67
15604;BME280;7902;49.042;9.092;2023-06-22T01:36:29;99118.47;;;26.12;56.88
15604;BME280;7902;49.042;9.092;2023-06-22T01:38:57;99107.50;;;26.07;56.81
15604;BME280;7902;49.042;9.092;2023-06-22T01:41:25;99115.38;;;26.02;57.00
15604;BME280;7902;49.042;9.092;2023-06-22T01:43:53;99119.50;;;26.04;56.86
15604;BME280;7902;49.042;9.092;2023-06-22T01:46:20;99119.53;;;25.98;56.99
15604;BME280;7902;49.042;9.092;2023-06-22T01:48:47;99114.16;;;25.98;56.87
15604;BME280;7902;49.042;9.092;2023-06-22T01:51:13;99103.78;;;25.95;57.14
15604;BME280;7902;49.042;9.092;2023-06-22T01:53:39;99100.50;;;25.93;57.08
15604;BME280;7902;49.042;9.092;2023-06-22T01:56:05;99116.84;;;25.98;56.98
15604;BME280;7902;49.042;9.092;2023-06-22T01:58:32;99117.88;;;25.97;56.95
15604;BME280;7902;49.042;9.092;2023-06-22T02:01:11;99114.16;;;25.98;56.94
15604;BME280;7902;49.042;9.092;2023-06-22T02:03:48;99123.06;;;25.92;56.87
15604;BME280;7902;49.042;9.092;2023-06-22T02:06:25;99124.72;;;25.93;56.98
15604;BME280;7902;49.042;9.092;2023-06-22T02:08:59;99126.19;;;25.89;56.94
15604;BME280;7902;49.042;9.092;2023-06-22T02:11:28;99119.56;;;25.85;57.10
15604;BME280;7902;49.042;9.092;2023-06-22T02:13:57;99118.72;;;25.91;57.00
15604;BME280;7902;49.042;9.092;2023-06-22T02:16:23;99131.56;;;25.89;57.05
15604;BME280;7902;49.042;9.092;2023-06-22T02:18:50;99132.34;;;25.96;56.90
15604;BME280;7902;49.042;9.092;2023-06-22T02:21:20;99121.81;;;25.88;57.04
15604;BME280;7902;49.042;9.092;2023-06-22T02:23:47;99119.75;;;25.90;57.22
15604;BME280;7902;49.042;9.092;2023-06-22T02:26:13;99114.19;;;25.85;57.24
15604;BME280;7902;49.042;9.092;2023-06-22T02:28:39;99119.13;;;25.81;57.33
15604;BME280;7902;49.042;9.092;2023-06-22T02:31:05;99119.56;;;25.85;57.27
15604;BME280;7902;49.042;9.092;2023-06-22T02:33:31;99115.44;;;25.75;57.51
15604;BME280;7902;49.042;9.092;2023-06-22T02:35:57;99108.19;;;25.69;57.50
15604;BME280;7902;49.042;9.092;2023-06-22T02:38:23;99098.47;;;25.75;57.58
15604;BME280;7902;49.042;9.092;2023-06-22T02:40:50;99098.03;;;25.71;57.75
15604;BME280;7902;49.042;9.092;2023-06-22T02:43:16;99097.81;;;25.53;57.87
15604;BME280;7902;49.042;9.092;2023-06-22T02:45:42;99090.97;;;25.44;58.18
15604;BME280;7902;49.042;9.092;2023-06-22T02:48:08;99094.47;;;25.38;58.24
15604;BME280;7902;49.042;9.092;2023-06-22T02:50:34;99085.19;;;25.34;58.29
15604;BME280;7902;49.042;9.092;2023-06-22T02:53:00;99088.50;;;25.36;58.27
15604;BME280;7902;49.042;9.092;2023-06-22T02:55:26;99089.75;;;25.40;58.31
15604;BME280;7902;49.042;9.092;2023-06-22T02:57:51;99091.41;;;25.41;58.21
15604;BME280;7902;49.042;9.092;2023-06-22T03:00:19;99095.94;;;25.41;58.22
15604;BME280;7902;49.042;9.092;2023-06-22T03:02:48;99087.06;;;25.40;58.22
15604;BME280;7902;49.042;9.092;2023-06-22T03:05:15;99081.88;;;25.45;57.82
15604;BME280;7902;49.042;9.092;2023-06-22T03:07:44;99087.72;;;25.55;57.47
15604;BME280;7902;49.042;9.092;2023-06-22T03:10:11;99075.69;;;25.51;57.55
15604;BME280;7902;49.042;9.092;2023-06-22T03:12:38;99073.44;;;25.61;57.70
15604;BME280;7902;49.042;9.092;2023-06-22T03:15:09;99078.19;;;25.59;57.45
15604;BME280;7902;49.042;9.092;2023-06-22T03:17:36;99080.66;;;25.54;57.72
15604;BME280;7902;49.042;9.092;2023-06-22T03:20:03;99074.84;;;25.51;57.57
15604;BME280;7902;49.042;9.092;2023-06-22T03:22:40;99065.31;;;25.48;57.71
15604;BME280;7902;49.042;9.092;2023-06-22T03:25:08;99064.53;;;25.41;57.79
15604;BME280;7902;49.042;9.092;2023-06-22T03:27:39;99065.75;;;25.39;57.97
15604;BME280;7902;49.042;9.092;2023-06-22T03:30:07;99056.03;;;25.44;57.58
15604;BME280;7902;49.042;9.092;2023-06-22T03:32:34;99068.22;;;25.53;57.63
15604;BME280;7902;49.042;9.092;2023-06-22T03:35:00;99070.94;;;25.47;57.28
15604;BME280;7902;49.042;9.092;2023-06-22T03:37:26;99056.66;;;25.46;57.51
15604;BME280;7902;49.042;9.092;2023-06-22T03:39:53;99061.00;;;25.47;57.86
15604;BME280;7902;49.042;9.092;2023-06-22T03:42:19;99058.31;;;25.47;57.72
15604;BME280;7902;49.042;9.092;2023-06-22T03:44:45;99062.88;;;25.47;57.46
15604;BME280;7902;49.042;9.092;2023-06-22T03:47:11;99062.03;;;25.46;57.41
15604;BME280;7902;49.042;9.092;2023-06-22T03:49:37;99068.03;;;25.48;57.54
15604;BME280;7902;49.042;9.092;2023-06-22T03:52:03;99067.41;;;25.46;57.43
15604;BME280;7902;49.042;9.092;2023-06-22T03:54:29;99055.84;;;25.46;57.49
15604;BME280;7902;49.042;9.092;2023-06-22T03:56:58;99062.22;;;25.38;57.75
15604;BME280;7902;49.042;9.092;2023-06-22T03:59:24;99067.22;;;25.41;57.68
15604;BME280;7902;49.042;9.092;2023-06-22T04:01:50;99065.16;;;25.37;57.89
15604;BME280;7902;49.042;9.092;2023-06-22T04:04:17;99059.97;;;25.22;58.21
15604;BME280;7902;49.042;9.092;2023-06-22T04:06:43;99052.09;;;25.14;58.47
15604;BME280;7902;49.042;9.092;2023-06-22T04:09:09;99048.38;;;25.15;58.37
15604;BME280;7902;49.042;9.092;2023-06-22T04:11:35;99052.09;;;25.07;58.80
15604;BME280;7902;49.042;9.092;2023-06-22T04:14:01;99057.06;;;25.17;58.48
15604;BME280;7902;49.042;9.092;2023-06-22T04:16:27;99045.47;;;25.10;58.51
15604;BME280;7902;49.042;9.092;2023-06-22T04:18:53;99048.97;;;25.10;58.62
15604;BME280;7902;49.042;9.092;2023-06-22T04:21:19;99041.97;;;25.16;58.35
15604;BME280;7902;49.042;9.092;2023-06-22T04:23:46;99047.16;;;25.17;58.50
15604;BME280;7902;49.042;9.092;2023-06-22T04:26:13;99040.94;;;25.17;58.45
15604;BME280;7902;49.042;9.092;2023-06-22T04:28:40;99040.72;;;25.12;58.74
15604;BME280;7902;49.042;9.092;2023-06-22T04:31:06;99047.56;;;25.14;58.75
15604;BME280;7902;49.042;9.092;2023-06-22T04:33:32;99041.97;;;25.09;58.90
15604;BME280;7902;49.042;9.092;2023-06-22T04:35:58;99032.47;;;25.20;58.71
15604;BME280;7902;49.042;9.092;2023-06-22T04:38:27;99026.88;;;25.21;58.53
15604;BME280;7902;49.042;9.092;2023-06-22T04:40:53;99033.31;;;25.27;58.29
15604;BME280;7902;49.042;9.092;2023-06-22T04:43:19;99038.47;;;25.35;58.32
15604;BME280;7902;49.042;9.092;2023-06-22T04:45:45;99029.56;;;25.41;58.10
15604;BME280;7902;49.042;9.092;2023-06-22T04:48:11;99021.91;;;25.45;57.76
15604;BME280;7902;49.042;9.092;2023-06-22T04:50:42;99030.38;;;25.48;57.86
15604;BME280;7902;49.042;9.092;2023-06-22T04:53:08;99025.84;;;25.49;57.81
15604;BME280;7902;49.042;9.092;2023-06-22T04:55:35;99024.38;;;25.53;57.92
15604;BME280;7902;49.042;9.092;2023-06-22T04:58:03;99025.88;;;25.55;57.53
15604;BME280;7902;49.042;9.092;2023-06-22T05:00:31;99023.56;;;25.59;57.30
15604;BME280;7902;49.042;9.092;2023-06-22T05:02:57;99024.19;;;25.67;57.17
15604;BME280;7902;49.042;9.092;2023-06-22T05:05:26;99017.78;;;25.68;57.49
15604;BME280;7902;49.042;9.092;2023-06-22T05:07:52;99013.81;;;25.71;57.35
15604;BME280;7902;49.042;9.092;2023-06-22T05:10:19;99012.38;;;25.75;57.27
15604;BME280;7902;49.042;9.092;2023-06-22T05:12:46;99014.44;;;25.80;57.22
15604;BME280;7902;49.042;9.092;2023-06-22T05:15:12;99014.41;;;25.86;57.23
15604;BME280;7902;49.042;9.092;2023-06-22T05:17:38;99020.63;;;25.87;57.15
15604;BME280;7902;49.042;9.092;2023-06-22T05:20:12;99009.88;;;25.87;57.00
15604;BME280;7902;49.042;9.092;2023-06-22T05:22:39;99011.09;;;25.91;56.84
15604;BME280;7902;49.042;9.092;2023-06-22T05:25:08;99014.00;;;25.89;57.09
15604;BME280;7902;49.042;9.092;2023-06-22T05:27:35;99015.19;;;26.00;57.08
15604;BME280;7902;49.042;9.092;2023-06-22T05:30:08;99006.72;;;26.03;56.64
15604;BME280;7902;49.042;9.092;2023-06-22T05:32:35;99012.09;;;26.03;57.04
15604;BME280;7902;49.042;9.092;2023-06-22T05:35:03;99006.28;;;26.06;56.85
15604;BME280;7902;49.042;9.092;2023-06-22T05:37:29;98997.00;;;26.02;56.68
15604;BME280;7902;49.042;9.092;2023-06-22T05:39:55;99003.16;;;26.15;56.86
15604;BME280;7902;49.042;9.092;2023-06-22T05:42:21;99011.03;;;26.04;57.60
15604;BME280;7902;49.042;9.092;2023-06-22T05:44:47;99011.41;;;26.14;57.03
15604;BME280;7902;49.042;9.092;2023-06-22T05:47:13;99001.28;;;26.16;56.89
15604;BME280;7902;49.042;9.092;2023-06-22T05:49:39;98999.81;;;26.20;56.92
15604;BME280;7902;49.042;9.092;2023-06-22T05:52:05;98998.59;;;26.23;57.04
15604;BME280;7902;49.042;9.092;2023-06-22T05:54:31;99007.66;;;26.28;57.60
15604;BME280;7902;49.042;9.092;2023-06-22T05:56:57;99000.88;;;26.26;57.21
15604;BME280;7902;49.042;9.092;2023-06-22T05:59:23;98993.09;;;26.42;56.47
15604;BME280;7902;49.042;9.092;2023-06-22T06:01:49;98993.53;;;26.39;57.28
15604;BME280;7902;49.042;9.092;2023-06-22T06:04:17;98992.25;;;26.48;56.58
15604;BME280;7902;49.042;9.092;2023-06-22T06:06:44;98990.19;;;26.50;56.99
15604;BME280;7902;49.042;9.092;2023-06-22T06:09:09;98990.66;;;26.72;56.25
15604;BME280;7902;49.042;9.092;2023-06-22T06:11:37;98992.78;;;26.63;56.18
15604;BME280;7902;49.042;9.092;2023-06-22T06:14:03;98989.44;;;26.68;55.88
15604;BME280;7902;49.042;9.092;2023-06-22T06:16:29;98999.91;;;26.83;55.31
15604;BME280;7902;49.042;9.092;2023-06-22T06:18:55;98995.78;;;26.87;55.70
15604;BME280;7902;49.042;9.092;2023-06-22T06:21:22;98995.31;;;26.90;55.26
15604;BME280;7902;49.042;9.092;2023-06-22T06:23:48;98989.50;;;26.93;55.16
15604;BME280;7902;49.042;9.092;2023-06-22T06:26:14;98990.09;;;26.95;56.31
15604;BME280;7902;49.042;9.092;2023-06-22T06:28:42;98991.31;;;26.99;55.44
15604;BME280;7902;49.042;9.092;2023-06-22T06:31:09;98991.94;;;27.01;56.00
15604;BME280;7902;49.042;9.092;2023-06-22T06:33:36;98981.53;;;27.04;55.63
15604;BME280;7902;49.042;9.092;2023-06-22T06:36:02;98978.25;;;27.02;55.67
15604;BME280;7902;49.042;9.092;2023-06-22T06:38:30;98988.97;;;27.09;55.63
15604;BME280;7902;49.042;9.092;2023-06-22T06:40:56;98986.91;;;27.04;55.34
15604;BME280;7902;49.042;9.092;2023-06-22T06:43:22;98993.31;;;27.10;55.87
15604;BME280;7902;49.042;9.092;2023-06-22T06:45:49;98996.38;;;27.14;55.30
15604;BME280;7902;49.042;9.092;2023-06-22T06:48:15;98990.56;;;27.17;55.79
15604;BME280;7902;49.042;9.092;2023-06-22T06:50:41;98988.09;;;27.15;56.73
15604;BME280;7902;49.042;9.092;2023-06-22T06:53:09;98983.53;;;27.16;56.34
15604;BME280;7902;49.042;9.092;2023-06-22T06:55:35;98984.66;;;27.26;55.12
15604;BME280;7902;49.042;9.092;2023-06-22T06:58:02;98981.16;;;27.26;55.26
15604;BME280;7902;49.042;9.092;2023-06-22T07:00:29;98978.22;;;27.27;55.69
15604;BME280;7902;49.042;9.092;2023-06-22T07:02:55;98972.31;;;27.37;55.67
15604;BME280;7902;49.042;9.092;2023-06-22T07:05:21;98966.25;;;27.41;54.55
15604;BME280;7902;49.042;9.092;2023-06-22T07:07:47;98964.91;;;27.32;54.92
15604;BME280;7902;49.042;9.092;2023-06-22T07:10:13;98961.13;;;27.40;54.82
15604;BME280;7902;49.042;9.092;2023-06-22T07:12:40;98949.72;;;27.38;54.34
15604;BME280;7902;49.042;9.092;2023-06-22T07:15:08;98951.56;;;27.37;54.47
15604;BME280;7902;49.042;9.092;2023-06-22T07:17:35;98945.50;;;27.48;54.46
15604;BME280;7902;49.042;9.092;2023-06-22T07:20:02;98953.59;;;27.48;53.90
15604;BME280;7902;49.042;9.092;2023-06-22T07:22:29;98945.72;;;27.40;53.89
15604;BME280;7902;49.042;9.092;2023-06-22T07:24:55;98942.16;;;27.46;54.11
15604;BME280;7902;49.042;9.092;2023-06-22T07:27:21;98934.31;;;27.45;53.60
15604;BME280;7902;49.042;9.092;2023-06-22T07:29:47;98938.03;;;27.44;53.72
15604;BME280;7902;49.042;9.092;2023-06-22T07:32:13;98932.41;;;27.45;53.40
15604;BME280;7902;49.042;9.092;2023-06-22T07:34:39;98931.00;;;27.43;54.13
15604;BME280;7902;49.042;9.092;2023-06-22T07:37:05;98930.50;;;27.53;53.36
15604;BME280;7902;49.042;9.092;2023-06-22T07:39:31;98918.81;;;27.59;52.55
15604;BME280;7902;49.042;9.092;2023-06-22T07:41:57;98911.78;;;27.58;53.44
15604;BME280;7902;49.042;9.092;2023-06-22T07:44:23;98901.00;;;27.58;53.00
15604;BME280;7902;49.042;9.092;2023-06-22T07:46:49;98896.19;;;27.60;52.65
15604;BME280;7902;49.042;9.092;2023-06-22T07:49:17;98902.13;;;27.68;52.70
15604;BME280;7902;49.042;9.092;2023-06-22T07:51:43;98914.63;;;27.63;52.90
15604;BME280;7902;49.042;9.092;2023-06-22T07:54:09;98910.63;;;27.65;52.26
15604;BME280;7902;49.042;9.092;2023-06-22T07:56:36;98913.34;;;27.65;52.29
15604;BME280;7902;49.042;9.092;2023-06-22T07:59:02;98911.78;;;27.76;52.44
15604;BME280;7902;49.042;9.092;2023-06-22T08:01:29;98914.09;;;27.72;51.87
15604;BME280;7902;49.042;9.092;2023-06-22T08:03:55;98908.91;;;27.71;52.29
15604;BME280;7902;49.042;9.092;2023-06-22T08:06:21;98909.53;;;27.73;51.95
15604;BME280;7902;49.042;9.092;2023-06-22T08:08:47;98913.72;;;27.69;51.94
15604;BME280;7902;49.042;9.092;2023-06-22T08:11:14;98914.94;;;27.73;52.14
15604;BME280;7902;49.042;9.092;2023-06-22T08:13:40;98904.88;;;27.80;52.27
15604;BME280;7902;49.042;9.092;2023-06-22T08:16:06;98901.34;;;27.79;51.55
15604;BME280;7902;49.042;9.092;2023-06-22T08:18:33;98902.31;;;27.85;51.74
15604;BME280;7902;49.042;9.092;2023-06-22T08:20:59;98909.94;;;27.88;51.86
15604;BME280;7902;49.042;9.092;2023-06-22T08:23:25;98914.09;;;27.90;51.70
15604;BME280;7902;49.042;9.092;2023-06-22T08:25:50;98908.22;;;27.93;51.46
15604;BME280;7902;49.042;9.092;2023-06-22T08:28:16;98905.75;;;27.92;51.72
15604;BME280;7902;49.042;9.092;2023-06-22T08:30:42;98902.59;;;27.95;51.67
15604;BME280;7902;49.042;9.092;2023-06-22T08:33:08;98904.47;;;27.94;51.32
15604;BME280;7902;49.042;9.092;2023-06-22T08:35:34;98903.56;;;28.01;51.13
15604;BME280;7902;49.042;9.092;2023-06-22T08:38:00;98909.19;;;27.99;51.01
15604;BME280;7902;49.042;9.092;2023-06-22T08:40:27;98906.78;;;28.09;50.95
15604;BME280;7902;49.042;9.092;2023-06-22T08:42:55;98904.69;;;28.11;51.38
15604;BME280;7902;49.042;9.092;2023-06-22T08:45:20;98917.75;;;28.14;50.88
15604;BME280;7902;49.042;9.092;2023-06-22T08:47:46;98923.38;;;28.13;50.96
15604;BME280;7902;49.042;9.092;2023-06-22T08:50:12;98937.22;;;28.16;50.38
15604;BME280;7902;49.042;9.092;2023-06-22T08:52:40;98937.50;;;28.08;51.12
15604;BME280;7902;49.042;9.092;2023-06-22T08:55:09;98932.78;;;28.22;51.19
15604;BME280;7902;49.042;9.092;2023-06-22T08:57:35;98952.66;;;28.27;51.05
15604;BME280;7902;49.042;9.092;2023-06-22T09:00:06;98945.75;;;28.31;50.56
15604;BME280;7902;49.042;9.092;2023-06-22T09:02:37;98957.22;;;28.27;51.07
15604;BME280;7902;49.042;9.092;2023-06-22T09:05:03;98975.94;;;28.40;51.15
15604;BME280;7902;49.042;9.092;2023-06-22T09:07:29;99004.53;;;28.48;50.79
15604;BME280;7902;49.042;9.092;2023-06-22T09:09:55;99027.69;;;28.73;50.52
15604;BME280;7902;49.042;9.092;2023-06-22T09:12:21;98988.94;;;28.79;50.28
15604;BME280;7902;49.042;9.092;2023-06-22T09:14:51;98962.59;;;28.75;50.24
15604;BME280;7902;49.042;9.092;2023-06-22T09:17:17;98970.28;;;28.60;50.20
15604;BME280;7902;49.042;9.092;2023-06-22T09:19:43;98949.97;;;28.57;49.90
15604;BME280;7902;49.042;9.092;2023-06-22T09:22:09;98921.75;;;28.53;49.78
15604;BME280;7902;49.042;9.092;2023-06-22T09:24:35;98913.53;;;28.48;50.97
15604;BME280;7902;49.042;9.092;2023-06-22T09:27:01;98908.00;;;28.55;50.02
15604;BME280;7902;49.042;9.092;2023-06-22T09:29:27;98890.63;;;28.51;49.94
15604;BME280;7902;49.042;9.092;2023-06-22T09:31:52;98891.91;;;28.48;50.53
15604;BME280;7902;49.042;9.092;2023-06-22T09:34:19;98884.38;;;28.50;50.20
15604;BME280;7902;49.042;9.092;2023-06-22T09:36:46;98881.34;;;28.47;50.50
15604;BME280;7902;49.042;9.092;2023-06-22T09:39:12;98880.63;;;28.51;49.98
15604;BME280;7902;49.042;9.092;2023-06-22T09:41:38;98861.13;;;28.49;49.97
15604;BME280;7902;49.042;9.092;2023-06-22T09:44:04;98858.81;;;28.53;50.12
15604;BME280;7902;49.042;9.092;2023-06-22T09:46:30;98857.38;;;28.50;50.39
15604;BME280;7902;49.042;9.092;2023-06-22T09:48:56;98868.09;;;28.57;49.82
15604;BME280;7902;49.042;9.092;2023-06-22T09:51:22;98865.25;;;28.63;50.30
15604;BME280;7902;49.042;9.092;2023-06-22T09:53:49;98865.97;;;28.59;49.90
15604;BME280;7902;49.042;9.092;2023-06-22T09:56:16;98865.38;;;28.57;49.82
15604;BME280;7902;49.042;9.092;2023-06-22T09:58:43;98878.97;;;28.50;50.39
15604;BME280;7902;49.042;9.092;2023-06-22T10:01:09;98874.19;;;28.64;50.42
15604;BME280;7902;49.042;9.092;2023-06-22T10:03:40;98865.63;;;28.67;49.68
15604;BME280;7902;49.042;9.092;2023-06-22T10:06:07;98867.13;;;28.63;49.92
15604;BME280;7902;49.042;9.092;2023-06-22T10:08:34;98866.34;;;28.62;50.38
15604;BME280;7902;49.042;9.092;2023-06-22T10:11:01;98870.44;;;28.65;50.26
15604;BME280;7902;49.042;9.092;2023-06-22T10:13:27;98868.09;;;28.68;50.26
15604;BME280;7902;49.042;9.092;2023-06-22T10:15:53;98868.50;;;28.72;49.96
15604;BME280;7902;49.042;9.092;2023-06-22T10:18:19;98868.59;;;28.77;50.14
15604;BME280;7902;49.042;9.092;2023-06-22T10:20:47;98870.72;;;28.75;49.70
15604;BME280;7902;49.042;9.092;2023-06-22T10:23:13;98863.31;;;28.82;49.52
15604;BME280;7902;49.042;9.092;2023-06-22T10:25:39;98848.16;;;28.81;49.69
15604;BME280;7902;49.042;9.092;2023-06-22T10:28:05;98831.00;;;28.87;49.72
15604;BME280;7902;49.042;9.092;2023-06-22T10:30:31;98834.31;;;28.89;49.43
15604;BME280;7902;49.042;9.092;2023-06-22T10:32:56;98833.34;;;28.84;50.32
15604;BME280;7902;49.042;9.092;2023-06-22T10:35:22;98844.63;;;28.92;50.00
15604;BME280;7902;49.042;9.092;2023-06-22T10:37:49;98837.94;;;28.95;49.62
15604;BME280;7902;49.042;9.092;2023-06-22T10:40:16;98843.34;;;28.95;49.94
15604;BME280;7902;49.042;9.092;2023-06-22T10:42:44;98825.13;;;28.90;49.73
15604;BME280;7902;49.042;9.092;2023-06-22T10:45:10;98808.56;;;28.98;49.73
15604;BME280;7902;49.042;9.092;2023-06-22T10:47:37;98793.97;;;28.99;49.72
15604;BME280;7902;49.042;9.092;2023-06-22T10:50:03;98798.09;;;29.02;50.15
15604;BME280;7902;49.042;9.092;2023-06-22T10:52:29;98807.13;;;29.07;49.41
15604;BME280;7902;49.042;9.092;2023-06-22T10:54:55;98803.16;;;29.10;50.28
15604;BME280;7902;49.042;9.092;2023-06-22T10:57:21;98808.28;;;29.11;49.69
15604;BME280;7902;49.042;9.092;2023-06-22T10:59:48;98812.75;;;29.17;49.88
15604;BME280;7902;49.042;9.092;2023-06-22T11:02:14;98797.09;;;29.19;49.42
15604;BME280;7902;49.042;9.092;2023-06-22T11:04:39;98794.50;;;29.24;49.69
15604;BME280;7902;49.042;9.092;2023-06-22T11:07:06;98788.28;;;29.24;49.55
15604;BME280;7902;49.042;9.092;2023-06-22T11:09:31;98797.94;;;29.20;49.87
15604;BME280;7902;49.042;9.092;2023-06-22T11:11:57;98796.97;;;29.26;50.17
15604;BME280;7902;49.042;9.092;2023-06-22T11:14:25;98795.03;;;29.33;49.39
15604;BME280;7902;49.042;9.092;2023-06-22T11:16:51;98791.50;;;29.33;49.29
15604;BME280;7902;49.042;9.092;2023-06-22T11:19:17;98787.47;;;29.35;49.59
15604;BME280;7902;49.042;9.092;2023-06-22T11:21:43;98784.88;;;29.29;49.31
15604;BME280;7902;49.042;9.092;2023-06-22T11:24:09;98788.19;;;29.31;50.00
15604;BME280;7902;49.042;9.092;2023-06-22T11:26:35;98783.47;;;29.38;49.44
15604;BME280;7902;49.042;9.092;2023-06-22T11:29:01;98782.50;;;29.44;49.57
15604;BME280;7902;49.042;9.092;2023-06-22T11:31:32;98784.16;;;29.45;49.70
15604;BME280;7902;49.042;9.092;2023-06-22T11:33:58;98786.97;;;29.50;49.79
15604;BME280;7902;49.042;9.092;2023-06-22T11:36:25;98788.28;;;29.47;49.76
15604;BME280;7902;49.042;9.092;2023-06-22T11:38:50;98778.84;;;29.50;49.89
15604;BME280;7902;49.042;9.092;2023-06-22T11:41:17;98776.13;;;29.50;49.72
15604;BME280;7902;49.042;9.092;2023-06-22T11:43:43;98769.78;;;29.56;49.50
15604;BME280;7902;49.042;9.092;2023-06-22T11:46:09;98769.28;;;29.59;49.75
15604;BME280;7902;49.042;9.092;2023-06-22T11:48:35;98770.44;;;29.63;49.39
15604;BME280;7902;49.042;9.092;2023-06-22T11:51:02;98777.50;;;29.64;49.53
15604;BME280;7902;49.042;9.092;2023-06-22T11:53:29;98772.66;;;29.66;49.63
15604;BME280;7902;49.042;9.092;2023-06-22T11:55:55;98768.53;;;29.63;49.77
15604;BME280;7902;49.042;9.092;2023-06-22T11:58:22;98761.84;;;29.66;49.60
15604;BME280;7902;49.042;9.092;2023-06-22T12:00:48;98754.19;;;29.63;49.79
15604;BME280;7902;49.042;9.092;2023-06-22T12:03:14;98762.91;;;29.65;49.56
15604;BME280;7902;49.042;9.092;2023-06-22T12:05:40;98762.56;;;29.61;49.84
15604;BME280;7902;49.042;9.092;2023-06-22T12:08:06;98765.00;;;29.63;49.74
15604;BME280;7902;49.042;9.092;2023-06-22T12:10:32;98766.16;;;29.67;49.69
15604;BME280;7902;49.042;9.092;2023-06-22T12:12:58;98761.16;;;29.59;49.72
15604;BME280;7902;49.042;9.092;2023-06-22T12:15:26;98772.41;;;29.67;49.43
15604;BME280;7902;49.042;9.092;2023-06-22T12:17:52;98783.22;;;29.67;49.58
15604;BME280;7902;49.042;9.092;2023-06-22T12:20:19;98789.47;;;29.68;49.51
15604;BME280;7902;49.042;9.092;2023-06-22T12:22:44;98773.22;;;29.68;49.73
15604;BME280;7902;49.042;9.092;2023-06-22T12:25:11;98784.16;;;29.73;49.60
15604;BME280;7902;49.042;9.092;2023-06-22T12:27:37;98797.59;;;29.68;49.57
15604;BME280;7902;49.042;9.092;2023-06-22T12:30:04;98801.31;;;29.79;49.38
15604;BME280;7902;49.042;9.092;2023-06-22T12:32:30;98804.41;;;29.71;49.64
15604;BME280;7902;49.042;9.092;2023-06-22T12:34:56;98806.72;;;29.79;49.57
15604;BME280;7902;49.042;9.092;2023-06-22T12:37:23;98798.38;;;29.80;49.67
15604;BME280;7902;49.042;9.092;2023-06-22T12:39:49;98785.91;;;29.79;49.24
15604;BME280;7902;49.042;9.092;2023-06-22T12:42:16;98788.28;;;29.76;49.40
15604;BME280;7902;49.042;9.092;2023-06-22T12:44:42;98782.69;;;29.82;49.75
15604;BME280;7902;49.042;9.092;2023-06-22T12:47:09;98790.00;;;29.82;49.87
15604;BME280;7902;49.042;9.092;2023-06-22T12:49:35;98791.28;;;29.91;49.27
15604;BME280;7902;49.042;9.092;2023-06-22T12:52:02;98782.78;;;29.87;49.23
15604;BME280;7902;49.042;9.092;2023-06-22T12:54:28;98769.66;;;29.79;49.37
15604;BME280;7902;49.042;9.092;2023-06-22T12:56:55;98783.75;;;29.81;49.27
15604;BME280;7902;49.042;9.092;2023-06-22T12:59:22;98772.94;;;29.81;49.47
15604;BME280;7902;49.042;9.092;2023-06-22T13:01:47;98782.38;;;29.79;49.25
15604;BME280;7902;49.042;9.092;2023-06-22T13:04:13;98779.34;;;29.75;49.28
15604;BME280;7902;49.042;9.092;2023-06-22T13:06:41;98773.44;;;29.78;49.36
15604;BME280;7902;49.042;9.092;2023-06-22T13:09:09;98752.59;;;29.79;49.42
15604;BME280;7902;49.042;9.092;2023-06-22T13:11:35;98765.41;;;29.83;49.56